Terminal Aerodrome Forecast
Issued by NWS

Home | Current Version | Previous Version | Text Only | Print | Product List | Glossary Off
Versions: 1 2 3 4 5 6 7 8 9 10 11 12 13

000
FTUS45 KGGW 211124
TAFSDY
TAF
KSDY 211124Z 2112/2212 20006KT P6SM SCT200
     FM211800 23008KT P6SM BKN070
     FM212100 28008KT P6SM VCSH OVC050
     FM212300 34009KT P6SM VCSH OVC050
     FM220400 35005KT P6SM -RASN OVC010
     FM220700 36005KT 4SM -SN OVC005=

USA.gov is the U.S. government's official web portal to all federal, state and local government web resources and services.